Time;durP1;ratioP1;P1;durP2;ratioP2;P2;SDS_P1;SDS_P2;PMS_P1;PMS_P2;Temp;Humidity;BMP_temperature;BMP_pressure;BME280_temperature;BME280_humidity;BME280_pressure;Samples;Min_cycle;Max_cycle;Signal;HPM_P1;HPM_P2
2022/04/02 00:01:43;;;;;;;6.25;3.55;;;3.20;99.90;;;;;;5052112;28;20021;-57
2022/04/02 00:04:10;;;;;;;6.78;3.25;;;3.10;99.90;;;;;;5052566;28;20033;-57
2022/04/02 00:06:36;;;;;;;7.95;3.58;;;3.10;99.90;;;;;;5053492;28;20067;-57
2022/04/02 00:09:03;;;;;;;7.03;3.40;;;3.10;99.90;;;;;;5053325;28;20025;-57
2022/04/02 00:11:29;;;;;;;6.75;3.53;;;3.10;99.90;;;;;;5052403;28;20394;-57
2022/04/02 00:13:54;;;;;;;5.60;3.30;;;3.10;99.90;;;;;;5052507;28;20033;-57
2022/04/02 00:16:20;;;;;;;10.52;3.53;;;3.00;99.90;;;;;;5052399;28;20418;-57
2022/04/02 00:18:49;;;;;;;10.00;3.33;;;3.00;99.90;;;;;;5052144;28;20393;-57
2022/04/02 00:21:15;;;;;;;6.18;3.55;;;3.00;99.90;;;;;;5052915;28;20013;-57
2022/04/02 00:23:43;;;;;;;9.10;3.47;;;3.00;99.90;;;;;;5051964;28;20025;-57
2022/04/02 00:26:10;;;;;;;6.07;3.25;;;2.90;99.90;;;;;;5051986;28;20060;-58
2022/04/02 00:28:37;;;;;;;12.30;3.85;;;2.90;99.90;;;;;;5051085;28;20098;-57
2022/04/02 00:31:04;;;;;;;7.80;2.90;;;2.80;99.90;;;;;;5052617;28;20035;-57
2022/04/02 00:33:30;;;;;;;8.57;3.40;;;2.80;99.90;;;;;;5050574;28;20024;-57
2022/04/02 00:35:56;;;;;;;7.72;3.10;;;2.80;99.90;;;;;;5052232;28;20028;-57
2022/04/02 00:38:21;;;;;;;6.38;2.92;;;2.80;99.90;;;;;;5052363;28;20021;-57
2022/04/02 00:40:47;;;;;;;6.82;2.90;;;2.70;99.90;;;;;;5051792;28;20236;-58
2022/04/02 00:43:23;;;;;;;6.40;3.28;;;2.70;99.90;;;;;;5051680;28;20041;-57
2022/04/02 00:45:49;;;;;;;7.60;3.08;;;2.70;99.90;;;;;;5051843;28;20156;-58
2022/04/02 00:48:15;;;;;;;6.20;3.22;;;2.70;99.90;;;;;;5050264;28;20071;-58
2022/04/02 00:50:40;;;;;;;5.97;2.88;;;2.70;99.90;;;;;;5052341;28;20102;-57
2022/04/02 00:53:06;;;;;;;7.22;3.53;;;2.70;99.90;;;;;;5052032;28;20029;-57
2022/04/02 00:55:33;;;;;;;7.15;3.20;;;2.60;99.90;;;;;;5051655;28;20056;-58
2022/04/02 00:58:00;;;;;;;5.70;3.28;;;2.60;99.90;;;;;;5052796;28;20029;-58
2022/04/02 01:00:26;;;;;;;9.68;3.55;;;2.60;99.90;;;;;;5051840;28;20025;-57
2022/04/02 01:02:52;;;;;;;11.80;3.40;;;2.60;99.90;;;;;;5051701;28;20043;-57
2022/04/02 01:05:18;;;;;;;7.60;3.60;;;2.60;99.90;;;;;;5052329;28;20517;-57
2022/04/02 01:07:43;;;;;;;11.20;3.65;;;2.60;99.90;;;;;;5051634;28;20029;-57
2022/04/02 01:10:09;;;;;;;9.82;3.15;;;2.50;99.90;;;;;;5051845;28;20099;-57
2022/04/02 01:12:34;;;;;;;11.43;3.30;;;2.50;99.90;;;;;;5051881;28;20033;-57
2022/04/02 01:15:00;;;;;;;8.18;3.70;;;2.50;99.90;;;;;;5051313;28;20028;-56
2022/04/02 01:17:26;;;;;;;7.47;3.25;;;2.40;99.90;;;;;;5051148;28;20066;-56
2022/04/02 01:19:53;;;;;;;7.57;3.38;;;2.40;99.90;;;;;;5051173;28;20074;-57
2022/04/02 01:22:19;;;;;;;6.75;3.45;;;2.40;99.90;;;;;;5051679;28;20028;-57
2022/04/02 01:24:44;;;;;;;9.57;3.35;;;2.40;99.90;;;;;;5050963;28;20033;-57
2022/04/02 01:27:10;;;;;;;9.00;3.53;;;2.40;99.90;;;;;;5052611;28;20393;-57
2022/04/02 01:29:35;;;;;;;13.23;3.40;;;2.40;99.90;;;;;;5052011;28;20032;-57
2022/04/02 01:32:01;;;;;;;8.45;3.83;;;2.40;99.90;;;;;;5051446;28;20064;-57
2022/04/02 01:34:31;;;;;;;8.52;3.58;;;2.30;99.90;;;;;;5050555;28;20323;-57
2022/04/02 01:36:57;;;;;;;10.98;3.40;;;2.40;99.90;;;;;;5050739;28;20648;-57
2022/04/02 01:39:22;;;;;;;10.02;3.88;;;2.30;99.90;;;;;;5052204;28;20051;-57
2022/04/02 01:41:48;;;;;;;6.88;3.28;;;2.30;99.90;;;;;;5051382;28;20031;-57
2022/04/02 01:44:14;;;;;;;9.63;3.90;;;2.40;99.90;;;;;;5051618;28;20478;-57
2022/04/02 01:46:40;;;;;;;8.90;3.50;;;2.30;99.90;;;;;;5051561;28;20029;-57
2022/04/02 01:49:06;;;;;;;8.43;3.60;;;2.30;99.90;;;;;;5051047;28;20135;-57
2022/04/02 01:51:32;;;;;;;8.80;3.47;;;2.30;99.90;;;;;;5050903;28;20079;-58
2022/04/02 01:53:58;;;;;;;6.10;3.40;;;2.30;99.90;;;;;;5048645;28;20025;-57
2022/04/02 01:56:23;;;;;;;9.88;3.28;;;2.30;99.90;;;;;;5050120;28;20025;-57
2022/04/02 01:58:49;;;;;;;8.20;3.60;;;2.40;99.90;;;;;;5051696;28;20390;-57
2022/04/02 02:01:15;;;;;;;7.25;3.58;;;2.30;99.90;;;;;;5050656;28;20505;-57
2022/04/02 02:03:40;;;;;;;9.15;3.33;;;2.30;99.90;;;;;;5050162;28;20036;-57
2022/04/02 02:06:07;;;;;;;7.80;3.42;;;2.30;99.90;;;;;;5066343;28;20025;-57
2022/04/02 02:08:32;;;;;;;7.82;3.20;;;2.30;99.90;;;;;;5051503;28;20040;-57
2022/04/02 02:10:58;;;;;;;10.02;3.83;;;2.30;99.90;;;;;;5050463;28;20041;-56
2022/04/02 02:13:24;;;;;;;10.07;3.25;;;2.30;99.90;;;;;;5051102;28;20031;-57
2022/04/02 02:15:49;;;;;;;10.07;3.80;;;2.20;99.90;;;;;;5049421;28;20474;-57
2022/04/02 02:18:15;;;;;;;7.78;3.58;;;2.20;99.90;;;;;;5050934;28;20019;-57
2022/04/02 02:20:40;;;;;;;7.43;3.60;;;2.20;99.90;;;;;;5050261;28;20058;-57
2022/04/02 02:23:06;;;;;;;8.32;3.50;;;2.20;99.90;;;;;;5050074;28;20475;-57
2022/04/02 02:25:34;;;;;;;12.30;3.30;;;2.20;99.90;;;;;;5049636;28;20544;-56
2022/04/02 02:28:00;;;;;;;11.10;3.40;;;2.20;99.90;;;;;;5049848;28;20437;-57
2022/04/02 02:30:26;;;;;;;13.52;3.95;;;2.30;99.90;;;;;;5050262;28;20104;-57
2022/04/02 02:35:49;;;;;;;11.80;4.00;;;2.30;99.90;;;;;;5050398;28;20108;-57
2022/04/02 02:35:49;;;;;;;7.90;3.67;;;2.30;99.90;;;;;;5053664;28;20475;-57
2022/04/02 02:38:16;;;;;;;8.93;3.47;;;2.20;99.90;;;;;;5054103;28;20021;-57
2022/04/02 02:40:42;;;;;;;10.85;3.80;;;2.20;99.90;;;;;;5053780;28;20027;-57
2022/04/02 02:43:08;;;;;;;8.82;3.22;;;2.20;99.90;;;;;;5054142;28;20449;-57
2022/04/02 02:45:34;;;;;;;8.60;3.22;;;2.20;99.90;;;;;;5054208;28;20029;-57
2022/04/02 02:48:01;;;;;;;10.68;3.75;;;2.20;99.90;;;;;;5053694;28;20088;-57
2022/04/02 02:50:27;;;;;;;10.98;3.92;;;2.20;99.90;;;;;;5054719;28;20040;-57
2022/04/02 02:52:53;;;;;;;8.10;3.38;;;2.20;99.90;;;;;;5054043;28;20483;-57
2022/04/02 02:55:19;;;;;;;10.38;3.30;;;2.20;99.90;;;;;;5068805;28;20374;-57
2022/04/02 02:57:45;;;;;;;6.82;3.67;;;2.20;99.90;;;;;;5053798;28;20158;-57
2022/04/02 03:00:13;;;;;;;6.07;4.18;;;2.20;99.90;;;;;;5054259;28;20028;-57
2022/04/02 03:02:39;;;;;;;7.88;4.15;;;2.20;99.90;;;;;;5053367;28;20061;-57
2022/04/02 03:05:13;;;;;;;10.63;3.80;;;2.10;99.90;;;;;;5053240;28;20094;-57
2022/04/02 03:07:48;;;;;;;11.32;3.20;;;2.10;99.90;;;;;;5052694;28;20108;-57
2022/04/02 03:10:14;;;;;;;8.95;3.50;;;2.10;99.90;;;;;;5053115;28;20052;-57
2022/04/02 03:12:39;;;;;;;11.98;3.53;;;2.00;99.90;;;;;;5053148;28;20492;-57
2022/04/02 03:15:05;;;;;;;9.07;4.00;;;2.00;99.90;;;;;;5053026;28;20055;-57
2022/04/02 03:17:31;;;;;;;7.18;3.60;;;2.00;99.90;;;;;;5053377;28;20060;-57
2022/04/02 03:19:57;;;;;;;7.18;3.60;;;2.00;99.90;;;;;;5053129;28;20100;-57
2022/04/02 03:22:24;;;;;;;5.13;3.50;;;2.00;99.90;;;;;;5053035;28;20013;-57
2022/04/02 03:24:50;;;;;;;5.32;3.50;;;2.00;99.90;;;;;;5052723;28;20479;-56
2022/04/02 03:27:16;;;;;;;8.93;3.33;;;1.90;99.90;;;;;;5052772;28;20032;-57
2022/04/02 03:29:42;;;;;;;12.07;4.38;;;1.90;99.90;;;;;;5053059;28;20053;-57
2022/04/02 03:32:08;;;;;;;7.97;3.78;;;1.90;99.90;;;;;;5052370;28;20025;-57
2022/04/02 03:34:33;;;;;;;7.25;3.60;;;1.90;99.90;;;;;;5052193;28;20254;-57
2022/04/02 03:36:59;;;;;;;8.90;3.85;;;1.90;99.90;;;;;;5052304;28;20044;-57
2022/04/02 03:39:25;;;;;;;9.23;4.15;;;1.90;99.90;;;;;;5053318;28;20036;-57
2022/04/02 03:41:53;;;;;;;10.90;3.78;;;1.90;99.90;;;;;;5052671;28;20107;-57
2022/04/02 03:44:19;;;;;;;7.82;3.70;;;1.90;99.90;;;;;;5052502;28;20028;-57
2022/04/02 03:49:29;;;;;;;8.57;4.07;;;1.80;99.90;;;;;;5052772;28;20063;-57
2022/04/02 03:51:55;;;;;;;8.40;4.28;;;1.80;99.90;;;;;;5052767;28;20021;-57
2022/04/02 03:54:21;;;;;;;8.77;4.15;;;1.80;99.90;;;;;;5050632;28;20017;-57
2022/04/02 03:56:47;;;;;;;7.25;4.22;;;1.80;99.90;;;;;;5052459;28;20100;-57
2022/04/02 03:59:13;;;;;;;7.63;4.32;;;1.80;99.90;;;;;;5052661;28;20109;-57
2022/04/02 04:01:39;;;;;;;11.40;3.78;;;1.80;99.90;;;;;;5052366;28;20022;-57
2022/04/02 04:04:05;;;;;;;6.57;3.22;;;1.80;99.90;;;;;;5051198;28;20493;-57
2022/04/02 04:06:34;;;;;;;5.53;4.03;;;1.80;99.90;;;;;;5052998;28;20040;-57
2022/04/02 04:09:00;;;;;;;8.02;4.20;;;1.90;99.90;;;;;;5052598;28;20032;-57
2022/04/02 04:11:26;;;;;;;6.47;3.72;;;1.80;99.90;;;;;;5051480;28;20067;-57
2022/04/02 04:13:53;;;;;;;8.43;3.95;;;1.80;99.90;;;;;;5051993;28;20048;-57
2022/04/02 04:16:19;;;;;;;7.35;3.50;;;1.80;99.90;;;;;;5052247;28;20025;-57
2022/04/02 04:18:45;;;;;;;6.78;3.47;;;1.80;99.90;;;;;;5052303;28;20055;-57
2022/04/02 04:21:14;;;;;;;10.57;3.97;;;1.80;99.90;;;;;;5052343;28;20029;-57
2022/04/02 04:23:39;;;;;;;7.18;3.50;;;1.80;99.90;;;;;;5051842;28;20017;-57
2022/04/02 04:26:05;;;;;;;9.73;4.00;;;1.80;99.90;;;;;;5050838;28;20063;-57
2022/04/02 04:28:31;;;;;;;9.90;4.00;;;1.80;99.90;;;;;;5051949;28;20029;-57
2022/04/02 04:30:56;;;;;;;9.40;3.72;;;1.80;99.90;;;;;;5051611;28;20040;-57
2022/04/02 04:33:22;;;;;;;7.65;3.33;;;1.80;99.90;;;;;;5051599;28;20505;-57
2022/04/02 04:35:48;;;;;;;6.60;3.80;;;1.70;99.90;;;;;;5051363;28;20100;-57
2022/04/02 04:38:13;;;;;;;5.55;3.35;;;1.70;99.90;;;;;;5052101;28;20387;-57
2022/04/02 04:40:39;;;;;;;6.88;3.65;;;1.70;99.90;;;;;;5051523;28;20025;-57
2022/04/02 04:43:05;;;;;;;7.03;3.00;;;1.70;99.90;;;;;;5052020;28;20048;-57
2022/04/02 04:45:30;;;;;;;7.50;3.42;;;1.70;99.90;;;;;;5051932;28;20176;-57
2022/04/02 04:47:56;;;;;;;9.38;3.63;;;1.80;99.90;;;;;;5051713;28;20033;-57
2022/04/02 04:50:22;;;;;;;8.20;3.50;;;1.70;99.90;;;;;;5052390;28;20020;-58
2022/04/02 04:52:47;;;;;;;8.43;3.50;;;1.70;99.90;;;;;;5052209;28;20512;-57
2022/04/02 04:55:13;;;;;;;8.52;3.55;;;1.70;99.90;;;;;;5051348;28;20037;-57
2022/04/02 04:57:39;;;;;;;7.85;3.67;;;1.70;99.90;;;;;;5051050;28;20047;-57
2022/04/02 05:00:05;;;;;;;6.85;4.00;;;1.70;99.90;;;;;;5052418;28;20029;-57
2022/04/02 05:02:31;;;;;;;9.68;3.17;;;1.70;99.90;;;;;;5051544;28;20025;-57
2022/04/02 05:04:57;;;;;;;7.30;3.45;;;1.70;99.90;;;;;;5052017;28;20414;-57
2022/04/02 05:07:23;;;;;;;8.75;3.95;;;1.70;99.90;;;;;;5051553;28;20337;-57
2022/04/02 05:09:49;;;;;;;5.18;2.67;;;1.70;99.90;;;;;;5051503;28;20025;-57
2022/04/02 05:12:15;;;;;;;21.02;3.20;;;1.70;99.90;;;;;;5051409;28;20322;-56
2022/04/02 05:14:41;;;;;;;6.65;3.03;;;1.70;99.90;;;;;;5066827;28;20036;-57
2022/04/02 05:17:07;;;;;;;5.22;3.45;;;1.70;99.90;;;;;;5051630;28;20029;-56
2022/04/02 05:19:33;;;;;;;4.45;2.90;;;1.70;99.90;;;;;;5051196;28;20032;-58
2022/04/02 05:22:00;;;;;;;8.68;3.10;;;1.70;99.90;;;;;;5051410;28;20111;-57
2022/04/02 05:24:26;;;;;;;6.05;3.10;;;1.70;99.90;;;;;;5050132;28;20028;-57
2022/04/02 05:26:52;;;;;;;5.45;3.28;;;1.70;99.90;;;;;;5052053;28;20021;-57
2022/04/02 05:29:17;;;;;;;14.02;3.38;;;1.70;99.90;;;;;;5051817;28;20029;-57
2022/04/02 05:31:43;;;;;;;7.18;2.83;;;1.70;99.90;;;;;;5051344;28;20429;-57
2022/04/02 05:34:10;;;;;;;11.07;3.47;;;1.70;99.90;;;;;;5067002;28;20367;-57
2022/04/02 05:36:37;;;;;;;8.02;3.20;;;1.70;99.90;;;;;;5051198;28;20124;-57
2022/04/02 05:39:02;;;;;;;11.32;3.80;;;1.80;99.90;;;;;;5050608;28;20100;-57
2022/04/02 05:41:29;;;;;;;8.70;3.75;;;1.80;99.90;;;;;;5050859;28;20101;-58
2022/04/02 05:43:55;;;;;;;6.53;3.10;;;1.70;99.90;;;;;;5050648;28;20036;-57
2022/04/02 05:46:21;;;;;;;8.45;3.90;;;1.70;99.90;;;;;;5050995;28;20033;-57
2022/04/02 05:48:47;;;;;;;8.13;3.88;;;1.80;99.90;;;;;;5050842;28;20056;-57
2022/04/02 05:51:13;;;;;;;8.88;3.50;;;1.70;99.90;;;;;;5051139;28;20033;-58
2022/04/02 05:53:38;;;;;;;8.13;3.92;;;1.70;99.90;;;;;;5052734;28;20025;-56
2022/04/02 05:56:04;;;;;;;13.27;5.82;;;1.70;99.90;;;;;;5051541;28;20108;-57
2022/04/02 05:58:30;;;;;;;13.80;6.55;;;1.70;99.90;;;;;;5051864;28;20040;-56
2022/04/02 06:00:55;;;;;;;14.93;5.07;;;1.70;99.90;;;;;;5066738;28;20021;-57
2022/04/02 06:03:21;;;;;;;12.23;4.40;;;1.70;99.90;;;;;;5050348;28;20020;-56
2022/04/02 06:05:50;;;;;;;5.75;3.67;;;1.70;99.90;;;;;;5052113;28;20024;-57
2022/04/02 06:08:17;;;;;;;12.48;3.75;;;1.70;99.90;;;;;;5052382;28;20048;-57
2022/04/02 06:10:44;;;;;;;12.32;3.67;;;1.70;99.90;;;;;;5054022;28;20033;-57
2022/04/02 06:13:10;;;;;;;7.80;3.63;;;1.70;99.90;;;;;;5054660;28;20025;-57
2022/04/02 06:15:37;;;;;;;9.80;3.47;;;1.70;99.90;;;;;;5054389;28;20116;-57
2022/04/02 06:18:03;;;;;;;11.43;3.47;;;1.80;99.90;;;;;;5054447;28;20021;-57
2022/04/02 06:20:29;;;;;;;9.23;3.65;;;1.70;99.90;;;;;;5055311;28;20067;-57
2022/04/02 06:22:55;;;;;;;7.68;3.00;;;1.80;99.90;;;;;;5070176;28;20029;-57
2022/04/02 06:25:20;;;;;;;8.40;3.25;;;1.80;99.90;;;;;;5054940;28;20069;-56
2022/04/02 06:27:48;;;;;;;8.48;3.15;;;1.80;99.90;;;;;;5055200;28;20232;-57
2022/04/02 06:30:17;;;;;;;8.30;3.50;;;1.90;99.90;;;;;;5055211;28;20477;-57
2022/04/02 06:32:44;;;;;;;11.70;4.03;;;1.90;99.90;;;;;;5054305;28;20032;-57
2022/04/02 06:35:10;;;;;;;10.38;3.70;;;1.90;99.90;;;;;;5054814;28;20033;-57
2022/04/02 06:37:39;;;;;;;9.23;3.05;;;2.00;99.90;;;;;;5055186;28;20001;-57
2022/04/02 06:40:06;;;;;;;9.30;3.33;;;2.00;99.90;;;;;;5054735;28;20367;-57
2022/04/02 06:42:33;;;;;;;10.60;3.15;;;2.00;99.90;;;;;;5052861;28;20485;-57
2022/04/02 06:44:58;;;;;;;12.55;4.22;;;2.10;99.90;;;;;;5053836;28;20017;-57
2022/04/02 06:47:31;;;;;;;7.75;3.47;;;2.10;99.90;;;;;;5053760;28;20055;-57
2022/04/02 06:49:57;;;;;;;11.25;4.00;;;2.20;99.90;;;;;;5054026;28;20048;-57
2022/04/02 06:52:24;;;;;;;8.02;3.53;;;2.20;99.90;;;;;;5054741;28;20074;-57
2022/04/02 06:54:50;;;;;;;8.90;3.55;;;2.30;99.90;;;;;;5054337;28;20075;-57
2022/04/02 06:57:20;;;;;;;7.60;3.20;;;2.40;99.90;;;;;;5057512;28;20025;-57
2022/04/02 06:59:46;;;;;;;5.72;3.03;;;2.40;99.90;;;;;;5055331;28;20028;-57
2022/04/02 07:02:12;;;;;;;6.82;3.40;;;2.50;99.90;;;;;;5058409;28;20493;-57
2022/04/02 07:04:38;;;;;;;11.90;3.50;;;2.50;99.90;;;;;;5058782;28;20021;-57
2022/04/02 07:07:03;;;;;;;6.43;3.42;;;2.50;99.90;;;;;;5055164;28;20086;-57
2022/04/02 07:09:29;;;;;;;10.57;3.22;;;2.50;99.90;;;;;;5054045;28;20025;-57
2022/04/02 07:11:55;;;;;;;8.43;3.05;;;2.60;99.90;;;;;;5053169;28;20108;-57
2022/04/02 07:14:22;;;;;;;5.50;2.78;;;2.80;99.90;;;;;;5052833;28;20083;-57
2022/04/02 07:16:48;;;;;;;5.00;3.15;;;2.90;99.90;;;;;;5053196;28;20071;-57
2022/04/02 07:19:19;;;;;;;10.88;3.55;;;2.90;99.90;;;;;;5053026;28;20513;-57
2022/04/02 07:21:45;;;;;;;11.95;3.78;;;3.00;99.90;;;;;;5052122;28;20451;-57
2022/04/02 07:24:12;;;;;;;8.65;3.58;;;3.10;99.90;;;;;;5053162;28;20028;-56
2022/04/02 07:26:38;;;;;;;7.18;3.17;;;3.20;99.90;;;;;;5052903;28;20033;-56
2022/04/02 07:29:05;;;;;;;10.82;3.33;;;3.30;99.90;;;;;;5053721;28;20029;-57
2022/04/02 07:31:31;;;;;;;7.03;3.05;;;3.40;99.90;;;;;;5053440;28;20040;-57
2022/04/02 07:33:57;;;;;;;7.07;3.35;;;3.40;99.90;;;;;;5052894;28;20025;-57
2022/04/02 07:36:55;;;;;;;5.82;3.20;;;3.50;99.90;;;;;;5052788;28;20483;-57
2022/04/02 07:39:41;;;;;;;5.20;2.67;;;3.50;99.90;;;;;;5052852;28;20017;-58
2022/04/02 07:42:26;;;;;;;7.43;3.08;;;3.70;99.90;;;;;;5053352;28;20105;-56
2022/04/02 07:44:54;;;;;;;5.63;3.28;;;4.10;99.90;;;;;;5054071;28;20033;-57
2022/04/02 07:47:23;;;;;;;6.90;2.63;;;5.20;99.90;;;;;;5054267;28;20033;-57
2022/04/02 07:49:54;;;;;;;3.83;2.58;;;6.20;99.90;;;;;;5054212;28;20048;-57
2022/04/02 07:52:22;;;;;;;4.88;2.80;;;7.10;99.60;;;;;;5054336;28;20021;-57
2022/04/02 07:54:54;;;;;;;3.35;2.08;;;7.60;97.00;;;;;;5053648;28;20056;-57
2022/04/02 07:57:27;;;;;;;4.13;2.50;;;7.80;96.50;;;;;;5052337;28;20025;-58
2022/04/02 08:00:00;;;;;;;3.45;2.08;;;8.00;95.30;;;;;;5053624;28;20029;-57
2022/04/02 08:02:39;;;;;;;3.42;2.33;;;8.20;94.80;;;;;;5052919;28;20391;-57
2022/04/02 08:05:07;;;;;;;4.88;2.83;;;8.90;94.20;;;;;;5051935;28;20462;-57
2022/04/02 08:07:35;;;;;;;5.07;2.40;;;9.30;92.80;;;;;;5052323;28;20036;-58
2022/04/02 08:10:08;;;;;;;5.45;2.65;;;10.00;91.90;;;;;;5052580;28;20029;-57
2022/04/02 08:12:35;;;;;;;4.75;2.35;;;10.30;90.30;;;;;;5052176;28;20024;-57
2022/04/02 08:15:05;;;;;;;6.30;2.80;;;10.10;89.30;;;;;;5052657;28;20397;-57
2022/04/02 08:17:32;;;;;;;3.67;2.58;;;10.10;91.00;;;;;;5052123;28;20501;-57
2022/04/02 08:19:59;;;;;;;8.85;3.03;;;10.70;89.80;;;;;;5052491;28;20033;-57
2022/04/02 08:22:25;;;;;;;8.35;2.95;;;10.90;87.70;;;;;;5051892;28;20016;-57
2022/04/02 08:24:50;;;;;;;4.28;2.42;;;11.40;87.10;;;;;;5052706;28;20517;-57
2022/04/02 08:27:47;;;;;;;5.25;2.17;;;11.30;83.20;;;;;;5052547;28;20024;-57
2022/04/02 08:30:26;;;;;;;6.13;2.17;;;10.60;83.90;;;;;;5052958;28;20071;-58
2022/04/02 08:33:10;;;;;;;3.55;2.10;;;10.40;84.50;;;;;;5052017;28;20031;-57
2022/04/02 08:35:46;;;;;;;6.45;2.50;;;10.20;83.70;;;;;;5051611;28;20037;-58
2022/04/02 08:38:32;;;;;;;3.28;2.70;;;10.10;84.80;;;;;;5051744;28;20328;-58
2022/04/02 08:41:09;;;;;;;2.42;2.10;;;10.20;85.20;;;;;;5051921;28;20021;-58
2022/04/02 08:43:56;;;;;;;4.35;2.40;;;10.50;84.40;;;;;;5052060;28;20363;-58
2022/04/02 08:46:52;;;;;;;7.00;2.65;;;11.00;83.40;;;;;;5051367;28;20754;-58
2022/04/02 08:49:24;;;;;;;7.30;2.42;;;11.40;82.30;;;;;;5051370;28;20559;-57
2022/04/02 08:52:04;;;;;;;2.30;1.90;;;11.70;80.70;;;;;;5051763;28;20049;-57
2022/04/02 08:54:38;;;;;;;3.60;2.00;;;11.90;80.00;;;;;;5051091;28;20056;-57
2022/04/02 08:57:32;;;;;;;4.35;2.40;;;11.60;77.30;;;;;;5051421;28;20033;-57
2022/04/02 09:00:09;;;;;;;5.95;2.35;;;10.90;78.90;;;;;;5051270;28;20025;-58
2022/04/02 09:03:14;;;;;;;3.67;2.50;;;11.10;79.60;;;;;;5050884;28;20033;-57
2022/04/02 09:06:13;;;;;;;3.58;2.38;;;11.40;80.00;;;;;;5051007;28;20056;-57
2022/04/02 09:09:11;;;;;;;3.95;2.30;;;11.70;77.50;;;;;;5050936;28;20032;-57
2022/04/02 09:12:08;;;;;;;2.88;2.20;;;11.20;77.00;;;;;;5006501;28;20659;-58
2022/04/02 09:14:34;;;;;;;5.57;2.38;;;11.10;77.00;;;;;;5050997;28;20086;-58
2022/04/02 09:17:20;;;;;;;6.55;2.47;;;11.20;78.60;;;;;;5050954;28;20021;-57
2022/04/02 09:20:03;;;;;;;3.90;2.60;;;11.40;77.80;;;;;;5050975;28;20113;-57
2022/04/02 09:23:06;;;;;;;6.57;2.25;;;10.60;78.00;;;;;;5051256;28;20051;-57
2022/04/02 09:25:50;;;;;;;4.00;2.08;;;10.40;77.90;;;;;;5050529;28;20537;-57
2022/04/02 09:28:40;;;;;;;6.47;2.63;;;10.20;78.90;;;;;;5050648;28;20031;-57
2022/04/02 09:31:34;;;;;;;5.00;2.50;;;9.90;79.30;;;;;;5050627;28;20032;-57
2022/04/02 09:34:42;;;;;;;4.88;2.45;;;9.70;82.00;;;;;;5050543;28;20031;-57
2022/04/02 09:37:22;;;;;;;7.88;2.55;;;9.80;81.30;;;;;;5050348;28;20481;-57
2022/04/02 09:40:05;;;;;;;7.97;2.70;;;10.20;79.70;;;;;;5049515;28;20051;-57
2022/04/02 09:42:43;;;;;;;5.32;2.58;;;10.30;79.10;;;;;;5050465;28;20032;-58
2022/04/02 09:45:09;;;;;;;3.75;2.67;;;10.60;78.50;;;;;;5049780;28;20056;-58
2022/04/02 09:47:47;;;;;;;4.07;2.42;;;10.20;77.30;;;;;;5050183;28;20063;-57
2022/04/02 09:50:16;;;;;;;4.57;2.35;;;10.10;78.00;;;;;;5050917;28;20044;-57
2022/04/02 09:53:05;;;;;;;4.15;2.85;;;9.80;78.60;;;;;;5051979;28;20075;-58
2022/04/02 09:56:21;;;;;;;4.28;2.40;;;10.60;79.60;;;;;;5050461;28;20029;-57
2022/04/02 09:58:49;;;;;;;4.32;2.35;;;10.70;75.20;;;;;;5050412;28;20017;-58
2022/04/02 10:01:39;;;;;;;3.28;2.08;;;11.30;75.00;;;;;;5051139;28;20058;-57
2022/04/02 10:04:08;;;;;;;4.78;2.58;;;11.20;73.50;;;;;;5052467;28;20061;-58
2022/04/02 10:06:48;;;;;;;2.30;1.88;;;10.00;74.40;;;;;;5055441;28;20394;-57
2022/04/02 10:09:15;;;;;;;2.67;1.98;;;8.90;76.70;;;;;;5054040;28;20025;-57
2022/04/02 10:11:47;;;;;;;3.03;2.17;;;8.60;77.40;;;;;;5051590;28;20550;-58
2022/04/02 10:14:22;;;;;;;5.43;2.60;;;8.00;78.50;;;;;;5050682;28;20485;-56
2022/04/02 10:16:56;;;;;;;6.63;2.67;;;7.70;81.30;;;;;;5050920;28;20649;-57
2022/04/02 10:19:30;;;;;;;4.97;2.47;;;7.60;82.00;;;;;;5050384;28;20021;-57
2022/04/02 10:22:02;;;;;;;5.05;2.67;;;7.50;80.40;;;;;;5050967;28;20036;-57
2022/04/02 10:24:36;;;;;;;5.32;2.80;;;7.40;79.60;;;;;;5051713;28;20029;-58
2022/04/02 10:27:03;;;;;;;7.68;2.92;;;7.40;79.40;;;;;;5051592;28;20490;-57
2022/04/02 10:29:44;;;;;;;4.18;2.50;;;7.40;79.70;;;;;;5050722;28;20100;-56
2022/04/02 10:32:33;;;;;;;6.63;2.60;;;7.20;79.90;;;;;;5052050;28;20075;-57
2022/04/02 10:35:05;;;;;;;3.40;2.50;;;7.10;80.40;;;;;;5051827;28;20065;-57
2022/04/02 10:37:40;;;;;;;5.63;2.72;;;7.20;80.90;;;;;;5050685;28;20034;-57
2022/04/02 10:40:11;;;;;;;5.70;2.60;;;7.30;80.80;;;;;;5050915;28;20483;-56
2022/04/02 10:42:40;;;;;;;5.90;3.22;;;7.50;80.30;;;;;;5050373;28;20397;-56
2022/04/02 10:45:07;;;;;;;6.57;2.60;;;7.80;81.50;;;;;;5050585;28;20224;-57
2022/04/02 10:47:39;;;;;;;7.03;2.70;;;9.10;79.50;;;;;;5050214;28;20033;-57
2022/04/02 10:50:06;;;;;;;5.90;2.50;;;10.30;76.60;;;;;;5051154;28;20542;-58
2022/04/02 10:52:32;;;;;;;5.43;2.72;;;11.30;73.50;;;;;;5051311;28;20087;-57
2022/04/02 10:54:58;;;;;;;7.65;2.70;;;10.60;73.90;;;;;;5051355;28;20025;-57
2022/04/02 10:57:28;;;;;;;6.15;2.80;;;10.60;74.60;;;;;;5054272;28;20502;-57
2022/04/02 11:00:17;;;;;;;5.35;2.80;;;10.50;75.00;;;;;;5053883;28;20129;-57
2022/04/02 11:02:49;;;;;;;5.15;2.63;;;11.10;75.10;;;;;;5054229;28;20032;-58
2022/04/02 11:05:17;;;;;;;2.58;2.05;;;12.20;71.20;;;;;;5053874;28;20028;-57
2022/04/02 11:07:45;;;;;;;5.75;2.83;;;13.10;69.00;;;;;;5053755;28;20375;-57
2022/04/02 11:10:15;;;;;;;6.05;3.00;;;13.10;67.70;;;;;;5053303;28;20116;-57
2022/04/02 11:12:42;;;;;;;6.57;2.92;;;12.60;67.30;;;;;;5053369;28;20359;-57
2022/04/02 11:15:19;;;;;;;6.03;2.92;;;11.70;68.80;;;;;;5054015;28;20032;-56
2022/04/02 11:17:48;;;;;;;3.15;2.60;;;10.70;70.10;;;;;;5054491;28;20052;-57
2022/04/02 11:20:19;;;;;;;3.58;2.20;;;10.40;72.90;;;;;;5054047;28;20021;-56
2022/04/02 11:22:54;;;;;;;2.78;2.58;;;9.90;73.50;;;;;;5053535;28;20435;-58
2022/04/02 11:25:31;;;;;;;5.75;2.90;;;9.60;74.50;;;;;;5053389;28;20024;-57
2022/04/02 11:28:08;;;;;;;4.30;2.85;;;9.20;75.90;;;;;;5053361;28;20680;-56
2022/04/02 11:30:37;;;;;;;4.13;2.33;;;8.80;77.00;;;;;;5053107;28;20037;-57
2022/04/02 11:33:16;;;;;;;5.53;2.35;;;8.30;76.40;;;;;;5053367;28;20036;-57
2022/04/02 11:35:51;;;;;;;4.53;2.78;;;8.00;76.20;;;;;;5053458;28;20025;-57
2022/04/02 11:38:20;;;;;;;4.43;2.45;;;8.20;77.80;;;;;;5054250;28;20029;-57
2022/04/02 11:41:15;;;;;;;8.23;2.72;;;9.30;76.30;;;;;;5052952;28;20514;-57
2022/04/02 11:43:45;;;;;;;8.05;2.72;;;9.70;73.70;;;;;;5053063;28;20066;-57
2022/04/02 11:46:19;;;;;;;3.92;2.35;;;9.50;73.70;;;;;;5053668;28;20052;-57
2022/04/02 11:48:55;;;;;;;5.55;2.40;;;8.90;73.90;;;;;;5053191;28;20049;-56
2022/04/02 11:51:28;;;;;;;4.00;2.47;;;8.50;76.20;;;;;;5053100;28;20108;-57
2022/04/02 11:54:02;;;;;;;6.35;2.53;;;8.30;78.30;;;;;;5052600;28;20025;-56
2022/04/02 11:56:37;;;;;;;6.60;2.97;;;8.50;78.20;;;;;;5052864;28;20079;-56
2022/04/02 11:59:08;;;;;;;5.90;2.83;;;8.90;77.60;;;;;;5048215;28;20053;-57
2022/04/02 12:01:42;;;;;;;4.38;2.53;;;8.80;75.10;;;;;;5033412;28;20020;-57
2022/04/02 12:04:14;;;;;;;7.00;2.60;;;8.30;75.70;;;;;;5032368;28;20103;-57
2022/04/02 12:06:41;;;;;;;5.80;2.38;;;8.00;77.60;;;;;;5031355;28;20483;-57
2022/04/02 12:09:12;;;;;;;3.55;2.55;;;7.90;77.40;;;;;;5033690;28;20039;-57
2022/04/02 12:11:42;;;;;;;10.05;2.85;;;7.80;78.90;;;;;;5032746;28;20500;-56
2022/04/02 12:14:07;;;;;;;5.78;3.03;;;8.10;79.60;;;;;;5032444;28;20427;-57
2022/04/02 12:16:38;;;;;;;6.55;3.03;;;8.30;80.80;;;;;;5032225;28;20053;-56
2022/04/02 12:19:05;;;;;;;13.93;5.45;;;8.50;81.10;;;;;;5032680;28;20112;-57
2022/04/02 12:21:36;;;;;;;11.85;4.78;;;8.40;82.30;;;;;;5031873;28;20100;-56
2022/04/02 12:24:04;;;;;;;6.35;3.05;;;8.60;83.00;;;;;;5033529;28;20505;-57
2022/04/02 12:26:30;;;;;;;9.50;3.40;;;9.30;80.40;;;;;;5032531;28;20025;-57
2022/04/02 12:29:01;;;;;;;4.70;3.15;;;9.90;80.10;;;;;;5032276;28;20060;-58
2022/04/02 12:31:30;;;;;;;6.10;2.80;;;9.80;77.60;;;;;;5032190;28;20037;-58
2022/04/02 12:33:57;;;;;;;3.83;2.70;;;9.90;78.00;;;;;;5031859;28;20490;-57
2022/04/02 12:36:31;;;;;;;4.53;2.85;;;9.70;77.90;;;;;;5031706;28;20112;-56
2022/04/02 12:39:06;;;;;;;4.53;3.10;;;9.60;77.60;;;;;;5031555;28;20364;-57
2022/04/02 12:41:32;;;;;;;4.35;2.70;;;10.90;77.10;;;;;;5031396;28;20018;-57
2022/04/02 12:44:03;;;;;;;6.00;2.72;;;11.70;76.40;;;;;;5032121;28;20052;-57
2022/04/02 12:46:29;;;;;;;3.80;2.90;;;12.10;72.50;;;;;;5032754;28;20034;-57
2022/04/02 12:48:56;;;;;;;5.68;2.53;;;12.10;72.90;;;;;;5032036;28;20115;-57
2022/04/02 12:51:23;;;;;;;4.72;2.53;;;11.20;73.10;;;;;;5047842;28;20070;-57
2022/04/02 12:53:58;;;;;;;4.07;2.83;;;10.50;73.70;;;;;;5032001;28;20086;-57
2022/04/02 12:56:27;;;;;;;4.40;3.10;;;10.00;74.90;;;;;;5031804;28;20041;-57
2022/04/02 12:58:54;;;;;;;4.15;2.75;;;9.40;78.30;;;;;;5047578;28;20032;-57
2022/04/02 13:01:29;;;;;;;4.97;3.10;;;9.10;78.70;;;;;;5032133;28;20450;-57
2022/04/02 13:04:09;;;;;;;5.80;3.40;;;8.90;79.40;;;;;;5034762;28;20056;-57
2022/04/02 13:06:42;;;;;;;5.80;2.88;;;8.70;81.40;;;;;;5036170;28;20100;-57
2022/04/02 13:09:20;;;;;;;6.57;3.22;;;8.50;82.10;;;;;;5033706;28;20026;-57
2022/04/02 13:11:57;;;;;;;9.75;3.40;;;8.50;82.40;;;;;;5032084;28;20120;-57